Other Surface Observations
Issued by NWS Missoula, MT

Home | Current Version | Previous Version | Text Only | Print | Product List | Glossary On
Versions: 1 2 3 4 5 6 7 8 9 10 11 12 13 14 15 16 17 18 19 20 21 22 23 24 25 26 27 28 29 30 31 32 33 34 35 36 37 38 39 40 41 42 43 44 45 46 47 48 49 50
000
SXUS55 KMSO 290603
OSOMSO
MONTANA AWOS SUMMARY
NATIONAL WEATHER SERVICE MISSOULA MT
1203 AM MDT SAT AUG 29 2015

Montana AWOS Reports

LAUREL      |K6S8 290555Z AUTO 00000KT 10SM 19/04 A2999 RMK AO1 T01940039
TWIN BRIDGES|K7S1 290555Z AUTO 30006KT 5SM HZ 22/03 A3007 RMK AO1 T02220033
ROUNDUP     |KRPX 290555Z AUTO 00000KT 15SM 25/04 A2990 RMK AO1 T02500039
MALTA       |KM75 290555Z AUTO 00000KT 7SM 22/07 A2985 RMK AO1 T02220072
SCOBEY      |K9S2 290555Z AUTO 00000KT 4SM HZ 16/06 A2992 RMK AO1 T01560056
EKALAKA     |K97M 290555Z AUTO 13005KT 7SM 21/04 A3003 RMK AO1 T02060039
PLAINS      |KS34 290555Z AUTO 00000KT 7SM 16/07 A2995 RMK AO1 T01610072




USA.gov is the U.S. government's official web portal to all federal, state and local government web resources and services.